Time,TemperatureF,DewpointF,PressureIn,WindDirection,WindDirectionDegrees,WindSpeedMPH,WindSpeedGustMPH,Humidity,HourlyPrecipIn,Conditions,Clouds,dailyrainin,SoftwareType,DateUTC
2013-05-10 00:00:00,55.4,54.6,30.11,South,182,0.0,0.0,97,0.00,,OVC055,0.00,VWS V14.01,2013-05-10 04:00:00,
2013-05-10 00:01:00,55.4,54.6,30.11,South,182,0.0,0.0,97,0.00,,OVC055,0.00,VWS V14.01,2013-05-10 04:01:00,
2013-05-10 00:06:00,55.4,54.8,30.11,South,182,0.0,1.0,98,0.00,,OVC055,0.00,VWS V14.01,2013-05-10 04:06:00,
2013-05-10 00:11:00,55.7,55.2,30.12,South,182,0.0,1.0,98,0.00,,OVC055,0.00,VWS V14.01,2013-05-10 04:11:00,
2013-05-10 00:16:00,55.6,55.0,30.12,South,182,0.0,1.0,98,0.00,,OVC055,0.00,VWS V14.01,2013-05-10 04:16:00,
2013-05-10 00:21:00,55.4,54.8,30.12,South,182,0.0,1.0,98,0.00,,OVC055,0.00,VWS V14.01,2013-05-10 04:21:00,
2013-05-10 00:26:00,55.3,54.8,30.12,South,182,0.0,1.0,98,0.00,,OVC055,0.00,VWS V14.01,2013-05-10 04:26:00,
2013-05-10 00:30:00,55.1,54.3,30.12,South,182,0.0,1.0,97,0.00,,OVC055,0.00,VWS V14.01,2013-05-10 04:30:00,
2013-05-10 00:31:00,55.1,54.3,30.12,South,182,0.0,0.0,97,0.00,,OVC055,0.00,VWS V14.01,2013-05-10 04:31:00,
2013-05-10 00:36:00,54.9,54.3,30.11,South,182,0.0,0.0,98,0.00,,OVC055,0.00,VWS V14.01,2013-05-10 04:36:00,
2013-05-10 00:41:00,54.9,54.3,30.12,South,182,0.0,0.0,98,0.00,,OVC055,0.00,VWS V14.01,2013-05-10 04:41:00,
2013-05-10 00:46:00,54.8,54.2,30.12,South,182,0.0,0.0,98,0.00,,OVC055,0.00,VWS V14.01,2013-05-10 04:46:00,
2013-05-10 00:51:00,54.9,54.3,30.12,South,182,0.0,0.0,98,0.00,,OVC055,0.00,VWS V14.01,2013-05-10 04:51:00,
2013-05-10 00:56:00,55.0,54.7,30.12,South,182,0.0,1.0,99,0.00,,OVC055,0.00,VWS V14.01,2013-05-10 04:56:00,
2013-05-10 01:00:00,55.1,54.8,30.12,South,182,0.0,1.0,99,0.00,,OVC055,0.00,VWS V14.01,2013-05-10 05:00:00,
2013-05-10 01:01:00,55.1,54.8,30.12,South,182,0.0,0.0,99,0.00,,OVC055,0.00,VWS V14.01,2013-05-10 05:01:00,
2013-05-10 01:06:00,55.2,54.9,30.12,South,182,0.0,0.0,99,0.00,,OVC055,0.00,VWS V14.01,2013-05-10 05:06:00,
2013-05-10 01:11:00,55.3,55.0,30.12,South,182,0.0,0.0,99,0.00,,OVC055,0.00,VWS V14.01,2013-05-10 05:11:00,
2013-05-10 01:16:00,55.3,55.0,30.12,South,182,0.0,0.0,99,0.00,,OVC055,0.00,VWS V14.01,2013-05-10 05:16:00,
2013-05-10 01:21:00,55.3,55.0,30.12,South,182,0.0,0.0,99,0.00,,OVC055,0.00,VWS V14.01,2013-05-10 05:21:00,
2013-05-10 01:26:00,55.1,54.5,30.12,South,182,0.0,0.0,98,0.00,,OVC055,0.00,VWS V14.01,2013-05-10 05:26:00,
2013-05-10 01:30:00,55.1,54.5,30.12,South,182,0.0,1.0,98,0.00,,OVC055,0.00,VWS V14.01,2013-05-10 05:30:00,
2013-05-10 01:31:00,55.1,54.8,30.12,South,182,0.0,0.0,99,0.00,,OVC055,0.00,VWS V14.01,2013-05-10 05:31:00,
2013-05-10 01:36:00,55.0,54.7,30.12,South,182,0.0,0.0,99,0.00,,OVC055,0.00,VWS V14.01,2013-05-10 05:36:00,
2013-05-10 01:41:00,54.7,54.2,30.11,South,182,0.0,0.0,98,0.00,,OVC055,0.00,VWS V14.01,2013-05-10 05:41:00,
2013-05-10 01:46:00,54.5,54.0,30.11,South,182,0.0,0.0,98,0.00,,OVC055,0.00,VWS V14.01,2013-05-10 05:46:00,
2013-05-10 01:51:00,54.3,53.8,30.11,South,182,0.0,0.0,98,0.00,,OVC055,0.00,VWS V14.01,2013-05-10 05:51:00,
2013-05-10 01:56:00,54.1,53.5,30.11,South,182,0.0,0.0,98,0.00,,OVC055,0.00,VWS V14.01,2013-05-10 05:56:00,
2013-05-10 02:00:00,54.1,53.5,30.10,South,182,0.0,0.0,98,0.00,,OVC055,0.00,VWS V14.01,2013-05-10 06:00:00,
2013-05-10 02:01:00,54.0,53.5,30.10,South,182,0.0,0.0,98,0.00,,OVC055,0.00,VWS V14.01,2013-05-10 06:01:00,
2013-05-10 02:06:00,53.9,53.3,30.10,South,182,0.0,0.0,98,0.00,,OVC055,0.00,VWS V14.01,2013-05-10 06:06:00,
2013-05-10 02:11:00,53.9,53.3,30.10,South,182,0.0,1.0,98,0.00,,OVC055,0.00,VWS V14.01,2013-05-10 06:11:00,
2013-05-10 02:16:00,53.9,53.6,30.10,South,182,0.0,1.0,99,0.00,,OVC055,0.00,VWS V14.01,2013-05-10 06:16:00,
2013-05-10 02:21:00,53.9,53.6,30.10,South,182,0.0,1.0,99,0.00,,OVC055,0.00,VWS V14.01,2013-05-10 06:21:00,
2013-05-10 02:26:00,53.7,53.4,30.10,South,182,0.0,1.0,99,0.00,,OVC055,0.00,VWS V14.01,2013-05-10 06:26:00,
2013-05-10 02:30:00,53.5,53.0,30.10,South,182,0.0,1.0,98,0.00,,OVC055,0.00,VWS V14.01,2013-05-10 06:30:00,
2013-05-10 02:31:00,53.3,52.8,30.10,South,182,0.0,0.0,98,0.00,,OVC055,0.00,VWS V14.01,2013-05-10 06:31:00,
2013-05-10 02:36:00,53.1,52.5,30.09,South,182,0.0,0.0,98,0.00,,OVC055,0.00,VWS V14.01,2013-05-10 06:36:00,
2013-05-10 02:40:00,53.0,52.5,30.10,South,182,0.0,0.0,98,0.00,,OVC055,0.00,VWS V14.01,2013-05-10 06:40:00,
2013-05-10 02:45:00,52.9,52.3,30.10,South,182,0.0,0.0,98,0.00,,OVC055,0.00,VWS V14.01,2013-05-10 06:45:00,
2013-05-10 02:50:00,52.8,52.2,30.10,South,182,0.0,0.0,98,0.00,,OVC055,0.00,VWS V14.01,2013-05-10 06:50:00,
2013-05-10 02:55:00,52.8,52.5,30.09,South,182,0.0,0.0,99,0.00,,OVC055,0.00,VWS V14.01,2013-05-10 06:55:00,
2013-05-10 03:00:00,52.8,52.5,30.09,South,182,0.0,0.0,99,0.00,,OVC055,0.00,VWS V14.01,2013-05-10 07:00:00,
2013-05-10 03:05:00,52.7,52.4,30.09,South,182,0.0,0.0,99,0.00,,OVC055,0.00,VWS V14.01,2013-05-10 07:05:00,
2013-05-10 03:10:00,52.4,51.8,30.09,South,182,0.0,0.0,98,0.00,,OVC055,0.00,VWS V14.01,2013-05-10 07:10:00,
2013-05-10 03:15:00,52.1,51.5,30.09,South,182,0.0,0.0,98,0.00,,OVC055,0.00,VWS V14.01,2013-05-10 07:15:00,
2013-05-10 03:20:00,52.1,51.8,30.09,South,182,0.0,0.0,99,0.00,,OVC055,0.00,VWS V14.01,2013-05-10 07:20:00,
2013-05-10 03:25:00,52.0,51.7,30.09,South,182,0.0,0.0,99,0.00,,OVC055,0.00,VWS V14.01,2013-05-10 07:25:00,
2013-05-10 03:30:00,52.0,51.7,30.09,South,182,0.0,0.0,99,0.00,,OVC055,0.00,VWS V14.01,2013-05-10 07:30:00,
2013-05-10 03:35:00,51.9,51.6,30.09,South,182,0.0,0.0,99,0.00,,OVC055,0.00,VWS V14.01,2013-05-10 07:35:00,
2013-05-10 03:40:00,51.8,51.5,30.09,South,182,0.0,0.0,99,0.00,,OVC055,0.00,VWS V14.01,2013-05-10 07:40:00,
2013-05-10 03:45:00,51.9,51.6,30.09,South,182,0.0,0.0,99,0.00,,OVC055,0.00,VWS V14.01,2013-05-10 07:45:00,
2013-05-10 03:50:00,52.0,51.7,30.09,South,182,0.0,0.0,99,0.00,,OVC055,0.00,VWS V14.01,2013-05-10 07:50:00,
2013-05-10 03:55:00,52.0,51.7,30.09,South,182,0.0,0.0,99,0.00,,OVC055,0.00,VWS V14.01,2013-05-10 07:55:00,
2013-05-10 04:00:00,52.0,51.7,30.09,South,182,0.0,0.0,99,0.00,,OVC055,0.00,VWS V14.01,2013-05-10 08:00:00,
2013-05-10 04:05:00,51.7,51.4,30.08,South,182,0.0,0.0,99,0.00,,OVC055,0.00,VWS V14.01,2013-05-10 08:05:00,
2013-05-10 04:10:00,51.5,51.2,30.08,South,182,0.0,0.0,99,0.00,,OVC055,0.00,VWS V14.01,2013-05-10 08:10:00,
2013-05-10 04:15:00,51.4,51.1,30.08,South,182,0.0,0.0,99,0.00,,OVC055,0.00,VWS V14.01,2013-05-10 08:15:00,
2013-05-10 04:20:00,51.4,51.1,30.08,South,182,0.0,0.0,99,0.00,,OVC055,0.00,VWS V14.01,2013-05-10 08:20:00,
2013-05-10 04:25:00,51.3,51.0,30.08,South,182,0.0,0.0,99,0.00,,OVC055,0.00,VWS V14.01,2013-05-10 08:25:00,
2013-05-10 04:30:00,51.2,50.9,30.08,South,182,0.0,0.0,99,0.00,,OVC055,0.00,VWS V14.01,2013-05-10 08:30:00,
2013-05-10 04:35:00,51.2,50.9,30.08,South,182,0.0,0.0,99,0.00,,OVC055,0.00,VWS V14.01,2013-05-10 08:35:00,
2013-05-10 04:40:00,51.3,51.0,30.08,South,182,0.0,0.0,99,0.00,,OVC055,0.00,VWS V14.01,2013-05-10 08:40:00,
2013-05-10 04:45:00,51.4,51.4,30.07,South,182,0.0,0.0,100,0.00,,OVC055,0.00,VWS V14.01,2013-05-10 08:45:00,
2013-05-10 04:50:00,51.4,51.4,30.07,South,182,0.0,0.0,100,0.00,,OVC055,0.00,VWS V14.01,2013-05-10 08:50:00,
2013-05-10 04:55:00,51.5,51.5,30.07,South,182,0.0,0.0,100,0.00,,OVC055,0.00,VWS V14.01,2013-05-10 08:55:00,
2013-05-10 05:00:00,51.5,51.5,30.07,South,182,0.0,0.0,100,0.00,,OVC055,0.00,VWS V14.01,2013-05-10 09:00:00,
2013-05-10 05:05:00,51.7,51.7,30.07,South,182,0.0,0.0,100,0.00,,OVC055,0.00,VWS V14.01,2013-05-10 09:05:00,
2013-05-10 05:10:00,51.7,51.7,30.07,South,182,0.0,0.0,100,0.00,,OVC055,0.00,VWS V14.01,2013-05-10 09:10:00,
2013-05-10 05:15:00,51.8,51.8,30.07,South,182,0.0,0.0,100,0.00,,OVC055,0.00,VWS V14.01,2013-05-10 09:15:00,
2013-05-10 05:20:00,51.7,51.7,30.07,South,182,0.0,0.0,100,0.00,,OVC055,0.00,VWS V14.01,2013-05-10 09:20:00,
2013-05-10 05:25:00,51.7,51.7,30.08,South,182,0.0,0.0,100,0.00,,OVC055,0.00,VWS V14.01,2013-05-10 09:25:00,
2013-05-10 05:30:00,51.7,51.7,30.08,South,182,0.0,0.0,100,0.00,,OVC055,0.00,VWS V14.01,2013-05-10 09:30:00,
2013-05-10 05:35:00,51.7,51.7,30.07,South,182,0.0,1.0,100,0.00,,OVC055,0.00,VWS V14.01,2013-05-10 09:35:00,
2013-05-10 05:40:00,51.7,51.7,30.07,South,182,0.0,1.0,100,0.00,,OVC055,0.00,VWS V14.01,2013-05-10 09:40:00,
2013-05-10 05:45:00,51.6,51.6,30.07,South,182,0.0,1.0,100,0.00,,OVC055,0.00,VWS V14.01,2013-05-10 09:45:00,
2013-05-10 05:50:00,51.5,51.5,30.07,South,182,0.0,1.0,100,0.00,,OVC055,0.00,VWS V14.01,2013-05-10 09:50:00,
2013-05-10 05:55:00,51.5,51.5,30.07,South,182,0.0,1.0,100,0.00,,OVC055,0.00,VWS V14.01,2013-05-10 09:55:00,
2013-05-10 06:00:00,51.4,51.4,30.07,South,182,0.0,0.0,100,0.00,,OVC055,0.00,VWS V14.01,2013-05-10 10:00:00,
2013-05-10 06:05:00,51.3,51.3,30.07,South,182,0.0,0.0,100,0.00,,OVC055,0.00,VWS V14.01,2013-05-10 10:05:00,
2013-05-10 06:10:00,51.2,51.2,30.07,South,182,0.0,0.0,100,0.00,,OVC055,0.00,VWS V14.01,2013-05-10 10:10:00,
2013-05-10 06:15:00,51.1,51.1,30.07,South,182,0.0,0.0,100,0.00,,OVC055,0.00,VWS V14.01,2013-05-10 10:15:00,
2013-05-10 06:20:00,51.0,50.7,30.08,South,182,0.0,0.0,99,0.00,,OVC055,0.00,VWS V14.01,2013-05-10 10:20:00,
2013-05-10 06:25:00,50.9,50.6,30.08,South,182,0.0,0.0,99,0.00,,OVC055,0.00,VWS V14.01,2013-05-10 10:25:00,
2013-05-10 06:30:00,50.8,50.5,30.08,South,182,0.0,0.0,99,0.00,,OVC055,0.00,VWS V14.01,2013-05-10 10:30:00,
2013-05-10 06:35:00,50.6,50.6,30.08,South,182,0.0,0.0,100,0.00,,OVC055,0.00,VWS V14.01,2013-05-10 10:35:00,
2013-05-10 06:40:00,50.5,50.5,30.08,South,182,0.0,0.0,100,0.00,,OVC055,0.00,VWS V14.01,2013-05-10 10:40:00,
2013-05-10 06:45:00,50.5,50.5,30.08,South,182,0.0,0.0,100,0.00,,OVC055,0.00,VWS V14.01,2013-05-10 10:45:00,
2013-05-10 06:50:00,50.5,50.5,30.08,South,182,0.0,0.0,100,0.00,,OVC055,0.00,VWS V14.01,2013-05-10 10:50:00,
2013-05-10 06:55:00,50.5,50.5,30.08,South,182,0.0,0.0,100,0.00,,OVC055,0.00,VWS V14.01,2013-05-10 10:55:00,
2013-05-10 07:00:00,50.6,50.6,30.08,South,182,0.0,0.0,100,0.00,,OVC055,0.00,VWS V14.01,2013-05-10 11:00:00,
2013-05-10 07:05:00,50.6,50.6,30.08,South,182,0.0,0.0,100,0.00,,OVC055,0.00,VWS V14.01,2013-05-10 11:05:00,
2013-05-10 07:10:00,50.7,50.7,30.08,South,182,0.0,0.0,100,0.00,,OVC055,0.00,VWS V14.01,2013-05-10 11:10:00,
2013-05-10 07:15:00,50.8,50.8,30.08,South,182,0.0,1.0,100,0.01,,OVC055,0.01,VWS V14.01,2013-05-10 11:15:00,
2013-05-10 07:20:00,50.8,50.8,30.08,South,182,0.0,1.0,100,0.01,,OVC055,0.01,VWS V14.01,2013-05-10 11:20:00,
2013-05-10 07:25:00,50.9,50.9,30.08,South,182,0.0,1.0,100,0.01,,OVC055,0.01,VWS V14.01,2013-05-10 11:25:00,
2013-05-10 07:30:00,51.0,51.0,30.09,South,182,0.0,1.0,100,0.01,,OVC055,0.01,VWS V14.01,2013-05-10 11:30:00,
2013-05-10 07:35:00,51.0,51.0,30.09,South,182,0.0,1.0,100,0.01,,OVC055,0.01,VWS V14.01,2013-05-10 11:35:00,
2013-05-10 07:40:00,51.0,51.0,30.09,South,182,0.0,1.0,100,0.01,,OVC055,0.01,VWS V14.01,2013-05-10 11:40:00,
2013-05-10 07:45:00,51.1,51.1,30.09,South,182,0.0,1.0,100,0.01,,OVC055,0.01,VWS V14.01,2013-05-10 11:45:00,
2013-05-10 07:50:00,51.2,51.2,30.08,South,182,0.0,1.0,100,0.01,,OVC055,0.01,VWS V14.01,2013-05-10 11:50:00,
2013-05-10 07:55:00,51.2,51.2,30.09,South,182,0.0,1.0,100,0.01,,OVC055,0.01,VWS V14.01,2013-05-10 11:55:00,
2013-05-10 08:00:00,51.3,51.3,30.09,South,182,0.0,1.0,100,0.01,,OVC055,0.01,VWS V14.01,2013-05-10 12:00:00,
2013-05-10 08:05:00,51.5,51.5,30.09,South,182,0.0,1.0,100,0.01,,OVC055,0.01,VWS V14.01,2013-05-10 12:05:00,
2013-05-10 08:10:00,51.8,51.8,30.09,South,182,0.0,1.0,100,0.01,,OVC055,0.01,VWS V14.01,2013-05-10 12:10:00,
2013-05-10 08:15:00,51.9,51.9,30.09,SSE,167,0.0,2.0,100,0.01,,OVC055,0.01,VWS V14.01,2013-05-10 12:15:00,
2013-05-10 08:20:00,52.0,52.0,30.09,West,260,0.0,2.0,100,0.01,,OVC055,0.01,VWS V14.01,2013-05-10 12:20:00,
2013-05-10 08:25:00,52.2,52.2,30.09,West,260,1.0,2.0,100,0.01,,OVC055,0.01,VWS V14.01,2013-05-10 12:25:00,
2013-05-10 08:30:00,52.3,52.3,30.09,West,260,0.0,1.0,100,0.00,,OVC055,0.01,VWS V14.01,2013-05-10 12:30:00,
2013-05-10 08:35:00,52.7,52.7,30.09,West,267,0.0,1.0,100,0.00,,OVC055,0.01,VWS V14.01,2013-05-10 12:35:00,
2013-05-10 08:40:00,52.9,52.9,30.09,West,267,0.0,2.0,100,0.00,,OVC055,0.01,VWS V14.01,2013-05-10 12:40:00,
2013-05-10 08:45:00,53.1,53.1,30.09,West,271,1.0,2.0,100,0.00,,OVC055,0.01,VWS V14.01,2013-05-10 12:45:00,
2013-05-10 08:50:00,53.1,53.1,30.09,West,273,0.0,2.0,100,0.00,,OVC055,0.01,VWS V14.01,2013-05-10 12:50:00,
2013-05-10 08:55:00,53.4,53.4,30.09,West,273,1.0,2.0,100,0.00,,OVC055,0.01,VWS V14.01,2013-05-10 12:55:00,
2013-05-10 09:00:00,53.7,53.7,30.09,West,273,0.0,0.0,100,0.00,,OVC055,0.01,VWS V14.01,2013-05-10 13:00:00,
2013-05-10 09:05:00,54.0,54.0,30.09,West,279,0.0,0.0,100,0.00,,OVC055,0.01,VWS V14.01,2013-05-10 13:05:00,
2013-05-10 09:10:00,54.5,54.5,30.08,NE,51,2.0,2.0,100,0.00,,OVC055,0.01,VWS V14.01,2013-05-10 13:10:00,
2013-05-10 09:15:00,55.0,55.0,30.08,NE,49,2.0,3.0,100,0.00,,OVC055,0.01,VWS V14.01,2013-05-10 13:15:00,
2013-05-10 09:20:00,55.4,55.4,30.08,NE,49,0.0,3.0,100,0.00,,OVC055,0.01,VWS V14.01,2013-05-10 13:20:00,
2013-05-10 09:25:00,55.9,55.9,30.08,NE,49,1.0,3.0,100,0.00,,OVC055,0.01,VWS V14.01,2013-05-10 13:25:00,
2013-05-10 09:30:00,56.7,56.7,30.08,NNE,21,0.0,2.0,100,0.00,,OVC055,0.01,VWS V14.01,2013-05-10 13:30:00,
2013-05-10 09:35:00,57.4,57.4,30.08,NE,34,1.0,3.0,100,0.00,,OVC055,0.01,VWS V14.01,2013-05-10 13:35:00,
2013-05-10 09:40:00,58.2,57.9,30.07,NNE,30,2.0,3.0,99,0.00,,OVC055,0.01,VWS V14.01,2013-05-10 13:40:00,
2013-05-10 09:45:00,59.0,58.2,30.07,NNE,28,1.0,3.0,97,0.00,,OVC055,0.01,VWS V14.01,2013-05-10 13:45:00,
2013-05-10 09:50:00,60.0,58.9,30.07,NE,36,1.0,3.0,96,0.00,,OVC055,0.01,VWS V14.01,2013-05-10 13:50:00,
2013-05-10 09:55:00,61.2,59.2,30.07,NE,36,1.0,3.0,93,0.00,,OVC055,0.01,VWS V14.01,2013-05-10 13:55:00,
2013-05-10 10:00:00,62.2,59.5,30.07,NE,34,3.0,3.0,91,0.00,,OVC055,0.01,VWS V14.01,2013-05-10 14:00:00,
2013-05-10 10:05:00,63.0,60.3,30.07,NNE,26,1.0,4.0,91,0.00,,OVC055,0.01,VWS V14.01,2013-05-10 14:05:00,
2013-05-10 10:10:00,63.8,60.5,30.07,NNE,24,2.0,4.0,89,0.00,,OVC055,0.01,VWS V14.01,2013-05-10 14:10:00,
2013-05-10 10:15:00,64.5,60.9,30.06,NNE,22,1.0,4.0,88,0.00,,OVC055,0.01,VWS V14.01,2013-05-10 14:15:00,
2013-05-10 10:20:00,65.4,61.8,30.06,NNE,22,1.0,4.0,88,0.00,,OVC055,0.01,VWS V14.01,2013-05-10 14:20:00,
2013-05-10 10:25:00,66.3,61.7,30.06,NE,44,1.0,4.0,85,0.00,,OVC055,0.01,VWS V14.01,2013-05-10 14:25:00,
2013-05-10 10:30:00,67.5,62.5,30.05,North,355,0.0,4.0,84,0.00,,OVC055,0.01,VWS V14.01,2013-05-10 14:30:00,
2013-05-10 10:35:00,68.9,62.1,30.05,NE,39,3.0,5.0,79,0.00,,OVC055,0.01,VWS V14.01,2013-05-10 14:35:00,
2013-05-10 10:40:00,70.4,61.3,30.05,NE,44,0.0,8.0,73,0.00,,OVC055,0.01,VWS V14.01,2013-05-10 14:40:00,
2013-05-10 10:45:00,71.5,61.6,30.05,West,263,3.0,8.0,71,0.00,,OVC055,0.01,VWS V14.01,2013-05-10 14:45:00,
2013-05-10 10:50:00,72.1,60.1,30.05,WNW,289,3.0,8.0,66,0.00,,OVC055,0.01,VWS V14.01,2013-05-10 14:50:00,
2013-05-10 10:54:00,72.5,60.5,30.06,SE,134,3.0,10.0,66,0.00,,OVC055,0.01,VWS V14.01,2013-05-10 14:54:00,
2013-05-10 10:59:00,72.9,60.0,30.06,SW,236,4.0,8.0,64,0.00,,OVC055,0.01,VWS V14.01,2013-05-10 14:59:00,
2013-05-10 11:00:00,72.8,60.4,30.06,ESE,119,2.0,10.0,65,0.00,,OVC055,0.01,VWS V14.01,2013-05-10 15:00:00,
2013-05-10 11:04:00,72.9,60.0,30.06,WNW,298,6.0,9.0,64,0.00,,OVC055,0.01,VWS V14.01,2013-05-10 15:04:00,
2013-05-10 11:09:00,73.0,59.2,30.06,NNE,27,1.0,9.0,62,0.00,,OVC055,0.01,VWS V14.01,2013-05-10 15:09:00,
2013-05-10 11:14:00,73.2,59.0,30.06,NNW,346,5.0,10.0,61,0.00,,OVC055,0.01,VWS V14.01,2013-05-10 15:14:00,
2013-05-10 11:19:00,73.6,58.4,30.06,South,191,3.0,10.0,59,0.00,,OVC055,0.01,VWS V14.01,2013-05-10 15:19:00,
2013-05-10 11:24:00,73.9,58.7,30.06,South,179,2.0,10.0,59,0.00,,OVC055,0.01,VWS V14.01,2013-05-10 15:24:00,
2013-05-10 11:29:00,74.0,58.8,30.07,ENE,77,2.0,3.0,59,0.00,,OVC055,0.01,VWS V14.01,2013-05-10 15:29:00,
2013-05-10 11:30:00,73.9,59.2,30.07,ENE,74,2.0,12.0,60,0.00,,OVC055,0.01,VWS V14.01,2013-05-10 15:30:00,
2013-05-10 11:34:00,74.2,59.4,30.07,ESE,119,3.0,5.0,60,0.00,,OVC055,0.01,VWS V14.01,2013-05-10 15:34:00,
2013-05-10 11:39:00,74.5,60.2,30.06,ENE,66,0.0,8.0,61,0.00,,OVC055,0.01,VWS V14.01,2013-05-10 15:39:00,
2013-05-10 11:44:00,74.6,58.4,30.06,WNW,301,3.0,8.0,57,0.00,,OVC055,0.01,VWS V14.01,2013-05-10 15:44:00,
2013-05-10 11:49:00,74.4,59.6,30.06,SW,221,6.0,11.0,60,0.00,,OVC055,0.01,VWS V14.01,2013-05-10 15:49:00,
2013-05-10 11:54:00,74.5,58.8,30.06,West,263,1.0,11.0,58,0.00,,OVC055,0.01,VWS V14.01,2013-05-10 15:54:00,
2013-05-10 11:59:00,74.4,59.2,30.06,SE,146,3.0,4.0,59,0.00,,OVC055,0.01,VWS V14.01,2013-05-10 15:59:00,
2013-05-10 12:00:00,74.4,59.2,30.06,East,93,1.0,11.0,59,0.00,,OVC055,0.01,VWS V14.01,2013-05-10 16:00:00,
2013-05-10 12:04:00,74.5,59.7,30.06,SSW,205,3.0,8.0,60,0.00,,OVC055,0.01,VWS V14.01,2013-05-10 16:04:00,
2013-05-10 12:09:00,74.7,59.4,30.06,NE,36,2.0,10.0,59,0.00,,OVC055,0.01,VWS V14.01,2013-05-10 16:09:00,
2013-05-10 12:14:00,74.4,59.6,30.06,West,269,3.0,10.0,60,0.00,,OVC055,0.01,VWS V14.01,2013-05-10 16:14:00,
2013-05-10 12:19:00,74.4,59.6,30.06,SW,225,0.0,10.0,60,0.00,,OVC055,0.01,VWS V14.01,2013-05-10 16:19:00,
2013-05-10 12:24:00,74.5,60.2,30.06,NW,313,3.0,10.0,61,0.00,,OVC055,0.01,VWS V14.01,2013-05-10 16:24:00,
2013-05-10 12:29:00,74.6,59.8,30.06,NNE,28,3.0,3.0,60,0.00,,OVC055,0.01,VWS V14.01,2013-05-10 16:29:00,
2013-05-10 12:30:00,74.6,59.8,30.06,ESE,109,2.0,11.0,60,0.00,,OVC055,0.01,VWS V14.01,2013-05-10 16:30:00,
2013-05-10 12:34:00,74.6,60.3,30.05,SE,141,1.0,5.0,61,0.00,,OVC055,0.01,VWS V14.01,2013-05-10 16:34:00,
2013-05-10 12:39:00,74.9,61.0,30.05,North,360,3.0,7.0,62,0.00,,OVC055,0.01,VWS V14.01,2013-05-10 16:39:00,
2013-05-10 12:44:00,75.4,61.0,30.05,NE,43,4.0,7.0,61,0.00,,OVC055,0.01,VWS V14.01,2013-05-10 16:44:00,
2013-05-10 12:49:00,75.4,59.6,30.05,SSW,193,7.0,12.0,58,0.00,,OVC055,0.01,VWS V14.01,2013-05-10 16:49:00,
2013-05-10 12:54:00,75.6,60.8,30.04,East,79,5.0,12.0,60,0.00,,OVC055,0.01,VWS V14.01,2013-05-10 16:54:00,
2013-05-10 12:59:00,75.9,60.6,30.04,WSW,244,6.0,6.0,59,0.00,,OVC055,0.01,VWS V14.01,2013-05-10 16:59:00,
2013-05-10 13:00:00,75.8,60.0,30.04,East,92,0.0,12.0,58,0.00,,OVC055,0.01,VWS V14.01,2013-05-10 17:00:00,
2013-05-10 13:04:00,76.4,61.5,30.04,NNE,29,2.0,9.0,60,0.00,,OVC055,0.01,VWS V14.01,2013-05-10 17:04:00,
2013-05-10 13:09:00,77.0,61.1,30.04,NW,304,1.0,9.0,58,0.00,,OVC055,0.01,VWS V14.01,2013-05-10 17:09:00,
2013-05-10 13:14:00,77.3,60.4,30.04,South,182,1.0,9.0,56,0.00,,OVC055,0.01,VWS V14.01,2013-05-10 17:14:00,
2013-05-10 13:19:00,77.0,60.6,30.04,NNE,27,4.0,12.0,57,0.00,,OVC055,0.01,VWS V14.01,2013-05-10 17:19:00,
2013-05-10 13:24:00,76.6,60.2,30.04,NNW,342,4.0,12.0,57,0.00,,OVC055,0.01,VWS V14.01,2013-05-10 17:24:00,
2013-05-10 13:29:00,76.6,60.2,30.03,NNE,17,4.0,5.0,57,0.00,,OVC055,0.01,VWS V14.01,2013-05-10 17:29:00,
2013-05-10 13:30:00,76.6,62.6,30.04,WNW,286,4.0,12.0,62,0.00,,OVC055,0.01,VWS V14.01,2013-05-10 17:30:00,
2013-05-10 13:34:00,76.8,60.9,30.04,NE,55,1.0,5.0,58,0.00,,OVC055,0.01,VWS V14.01,2013-05-10 17:34:00,
2013-05-10 13:39:00,77.0,61.1,30.03,West,269,1.0,7.0,58,0.00,,OVC055,0.01,VWS V14.01,2013-05-10 17:39:00,
2013-05-10 13:44:00,76.8,62.3,30.03,North,5,1.0,7.0,61,0.00,,OVC055,0.01,VWS V14.01,2013-05-10 17:44:00,
2013-05-10 13:49:00,76.8,60.4,30.03,WNW,286,0.0,7.0,57,0.00,,OVC055,0.01,VWS V14.01,2013-05-10 17:49:00,
2013-05-10 13:54:00,76.4,60.1,30.03,NNE,14,3.0,13.0,57,0.00,,OVC055,0.01,VWS V14.01,2013-05-10 17:54:00,
2013-05-10 13:59:00,75.7,60.4,30.04,SSE,161,2.0,3.0,59,0.00,,OVC055,0.01,VWS V14.01,2013-05-10 17:59:00,
2013-05-10 14:00:00,75.8,60.0,30.03,East,88,3.0,13.0,58,0.00,,OVC055,0.01,VWS V14.01,2013-05-10 18:00:00,
2013-05-10 14:04:00,74.8,60.5,30.03,WSW,254,2.0,9.0,61,0.00,,OVC055,0.01,VWS V14.01,2013-05-10 18:04:00,
2013-05-10 14:09:00,73.9,61.0,30.03,NW,322,3.0,9.0,64,0.00,,OVC055,0.01,VWS V14.01,2013-05-10 18:09:00,
2013-05-10 14:14:00,73.2,60.7,30.04,ENE,66,1.0,9.0,65,0.00,,OVC055,0.01,VWS V14.01,2013-05-10 18:14:00,
2013-05-10 14:19:00,72.2,61.5,30.04,North,355,0.0,9.0,69,0.00,,OVC055,0.01,VWS V14.01,2013-05-10 18:19:00,
2013-05-10 14:24:00,71.2,60.9,30.03,ENE,62,2.0,9.0,70,0.00,,OVC055,0.01,VWS V14.01,2013-05-10 18:24:00,
2013-05-10 14:29:00,70.8,61.7,30.03,NE,44,1.0,3.0,73,0.00,,OVC055,0.01,VWS V14.01,2013-05-10 18:29:00,
2013-05-10 14:30:00,70.8,61.7,30.03,NE,38,2.0,9.0,73,0.00,,OVC055,0.01,VWS V14.01,2013-05-10 18:30:00,
2013-05-10 14:34:00,70.9,62.6,30.03,NNW,334,2.0,4.0,75,0.00,,OVC055,0.01,VWS V14.01,2013-05-10 18:34:00,
2013-05-10 14:39:00,71.7,63.0,30.03,NNE,22,4.0,7.0,74,0.00,,OVC055,0.01,VWS V14.01,2013-05-10 18:39:00,
2013-05-10 14:44:00,72.1,62.2,30.03,North,9,2.0,7.0,71,0.00,,OVC055,0.01,VWS V14.01,2013-05-10 18:44:00,
2013-05-10 14:49:00,72.5,63.0,30.02,SE,124,3.0,7.0,72,0.00,,OVC055,0.01,VWS V14.01,2013-05-10 18:49:00,
2013-05-10 14:54:00,72.5,61.8,30.02,West,269,2.0,7.0,69,0.00,,OVC055,0.01,VWS V14.01,2013-05-10 18:54:00,
2013-05-10 14:59:00,72.4,62.1,30.02,North,355,1.0,1.0,70,0.00,,OVC055,0.01,VWS V14.01,2013-05-10 18:59:00,
2013-05-10 15:00:00,72.4,62.1,30.02,NNE,30,1.0,7.0,70,0.00,,OVC055,0.01,VWS V14.01,2013-05-10 19:00:00,
2013-05-10 15:04:00,72.8,62.9,30.01,North,360,3.0,5.0,71,0.00,,OVC055,0.01,VWS V14.01,2013-05-10 19:04:00,
2013-05-10 15:09:00,73.1,61.5,30.01,West,279,4.0,7.0,67,0.00,,OVC055,0.01,VWS V14.01,2013-05-10 19:09:00,
2013-05-10 15:14:00,73.5,61.9,30.01,NE,37,3.0,7.0,67,0.00,,OVC055,0.01,VWS V14.01,2013-05-10 19:14:00,
2013-05-10 15:19:00,73.8,60.9,30.00,North,360,2.0,9.0,64,0.00,,OVC055,0.01,VWS V14.01,2013-05-10 19:19:00,
2013-05-10 15:24:00,74.0,60.6,30.00,East,98,2.0,9.0,63,0.00,,OVC055,0.01,VWS V14.01,2013-05-10 19:24:00,
2013-05-10 15:29:00,74.4,61.4,30.00,NNE,33,2.0,2.0,64,0.00,,OVC055,0.01,VWS V14.01,2013-05-10 19:29:00,
2013-05-10 15:30:00,74.4,61.4,30.00,NNE,24,2.0,9.0,64,0.00,,OVC055,0.01,VWS V14.01,2013-05-10 19:30:00,
2013-05-10 15:34:00,74.2,61.2,30.00,ENE,75,2.0,5.0,64,0.00,,OVC055,0.01,VWS V14.01,2013-05-10 19:34:00,
2013-05-10 15:39:00,73.9,61.0,30.00,NNE,17,5.0,7.0,64,0.00,,OVC055,0.01,VWS V14.01,2013-05-10 19:39:00,
2013-05-10 15:44:00,73.7,60.8,30.00,South,174,2.0,7.0,64,0.00,,OVC055,0.01,VWS V14.01,2013-05-10 19:44:00,
2013-05-10 15:49:00,73.7,60.8,30.00,NE,56,4.0,7.0,64,0.00,,OVC055,0.01,VWS V14.01,2013-05-10 19:49:00,
2013-05-10 15:54:00,73.7,60.3,30.00,West,277,1.0,8.0,63,0.00,,OVC055,0.01,VWS V14.01,2013-05-10 19:54:00,
2013-05-10 15:59:00,73.6,60.7,29.99,NNE,32,0.0,2.0,64,0.00,,OVC055,0.01,VWS V14.01,2013-05-10 19:59:00,
2013-05-10 16:00:00,73.6,61.1,29.99,NNE,32,2.0,8.0,65,0.00,,OVC055,0.01,VWS V14.01,2013-05-10 20:00:00,
2013-05-10 16:04:00,73.4,60.9,30.00,ENE,75,2.0,11.0,65,0.00,,OVC055,0.01,VWS V14.01,2013-05-10 20:04:00,
2013-05-10 16:09:00,73.2,60.7,29.99,ENE,70,2.0,11.0,65,0.00,,OVC055,0.01,VWS V14.01,2013-05-10 20:09:00,
2013-05-10 16:14:00,72.9,60.5,29.99,NNE,28,3.0,11.0,65,0.00,,OVC055,0.01,VWS V14.01,2013-05-10 20:14:00,
2013-05-10 16:19:00,72.4,60.0,29.99,NNE,25,3.0,11.0,65,0.00,,OVC055,0.01,VWS V14.01,2013-05-10 20:19:00,
2013-05-10 16:24:00,72.2,61.1,29.99,West,272,1.0,11.0,68,0.00,,OVC055,0.01,VWS V14.01,2013-05-10 20:24:00,
2013-05-10 16:29:00,72.0,60.5,29.99,North,360,1.0,1.0,67,0.00,,OVC055,0.01,VWS V14.01,2013-05-10 20:29:00,
2013-05-10 16:30:00,72.0,60.9,29.99,North,360,1.0,11.0,68,0.00,,OVC055,0.01,VWS V14.01,2013-05-10 20:30:00,
2013-05-10 16:34:00,71.8,60.7,29.99,ESE,105,4.0,4.0,68,0.00,,OVC055,0.01,VWS V14.01,2013-05-10 20:34:00,
2013-05-10 16:39:00,71.8,60.7,29.99,NW,310,1.0,4.0,68,0.00,,OVC055,0.01,VWS V14.01,2013-05-10 20:39:00,
2013-05-10 16:44:00,71.8,60.7,29.98,WSW,242,2.0,4.0,68,0.00,,OVC055,0.01,VWS V14.01,2013-05-10 20:44:00,
2013-05-10 16:49:00,71.7,60.6,29.98,North,349,2.0,6.0,68,0.00,,OVC055,0.01,VWS V14.01,2013-05-10 20:49:00,
2013-05-10 16:54:00,71.8,61.1,29.99,North,355,0.0,6.0,69,0.00,,OVC055,0.01,VWS V14.01,2013-05-10 20:54:00,
2013-05-10 16:59:00,71.8,61.9,29.99,SE,132,2.0,2.0,71,0.00,,OVC055,0.01,VWS V14.01,2013-05-10 20:59:00,
2013-05-10 17:00:00,71.8,61.5,29.99,SE,132,1.0,6.0,70,0.00,,OVC055,0.01,VWS V14.01,2013-05-10 21:00:00,
2013-05-10 17:04:00,71.9,61.6,29.99,East,94,2.0,4.0,70,0.00,,OVC055,0.01,VWS V14.01,2013-05-10 21:04:00,
2013-05-10 17:09:00,71.8,61.9,29.98,SE,142,8.0,11.0,71,0.00,,OVC055,0.01,VWS V14.01,2013-05-10 21:09:00,
2013-05-10 17:14:00,71.5,61.2,29.98,North,355,1.0,11.0,70,0.00,,OVC055,0.01,VWS V14.01,2013-05-10 21:14:00,
2013-05-10 17:19:00,71.3,61.4,29.99,NE,34,1.0,11.0,71,0.00,,OVC055,0.01,VWS V14.01,2013-05-10 21:19:00,
2013-05-10 17:24:00,71.3,61.0,29.99,South,188,3.0,11.0,70,0.00,,OVC055,0.01,VWS V14.01,2013-05-10 21:24:00,
2013-05-10 17:29:00,71.3,60.2,29.99,SSE,150,3.0,4.0,68,0.00,,OVC055,0.01,VWS V14.01,2013-05-10 21:29:00,
2013-05-10 17:30:00,71.3,61.0,29.99,West,265,0.0,11.0,70,0.00,,OVC055,0.01,VWS V14.01,2013-05-10 21:30:00,
2013-05-10 17:34:00,71.2,60.9,29.99,ESE,112,2.0,4.0,70,0.00,,OVC055,0.01,VWS V14.01,2013-05-10 21:34:00,
2013-05-10 17:39:00,71.0,59.9,29.99,ESE,111,2.0,6.0,68,0.00,,OVC055,0.01,VWS V14.01,2013-05-10 21:39:00,
2013-05-10 17:44:00,70.8,59.3,29.98,SSE,165,1.0,6.0,67,0.00,,OVC055,0.01,VWS V14.01,2013-05-10 21:44:00,
2013-05-10 17:49:00,70.6,60.0,29.98,ENE,58,2.0,6.0,69,0.00,,OVC055,0.01,VWS V14.01,2013-05-10 21:49:00,
2013-05-10 17:54:00,70.5,59.4,29.98,WNW,298,3.0,6.0,68,0.00,,OVC055,0.01,VWS V14.01,2013-05-10 21:54:00,
2013-05-10 17:58:00,70.4,59.3,29.98,NW,322,0.0,6.0,68,0.00,,OVC055,0.01,VWS V14.01,2013-05-10 21:58:00,
2013-05-10 18:00:00,70.3,59.2,29.98,NW,322,0.0,6.0,68,0.00,,OVC055,0.01,VWS V14.01,2013-05-10 22:00:00,
2013-05-10 18:03:00,70.3,59.2,29.98,NW,316,1.0,4.0,68,0.00,,OVC055,0.01,VWS V14.01,2013-05-10 22:03:00,
2013-05-10 18:08:00,70.2,59.2,29.98,NW,304,2.0,4.0,68,0.00,,OVC055,0.01,VWS V14.01,2013-05-10 22:08:00,
2013-05-10 18:13:00,70.1,59.5,29.98,North,350,0.0,4.0,69,0.00,,OVC055,0.01,VWS V14.01,2013-05-10 22:13:00,
2013-05-10 18:18:00,70.1,59.1,29.98,ENE,71,2.0,4.0,68,0.00,,OVC055,0.01,VWS V14.01,2013-05-10 22:18:00,
2013-05-10 18:23:00,70.1,59.5,29.98,ENE,70,0.0,4.0,69,0.00,,OVC055,0.01,VWS V14.01,2013-05-10 22:23:00,
2013-05-10 18:28:00,70.0,59.0,29.98,NW,307,0.0,4.0,68,0.00,,OVC055,0.01,VWS V14.01,2013-05-10 22:28:00,
2013-05-10 18:30:00,70.0,59.0,29.98,NW,308,0.0,4.0,68,0.00,,OVC055,0.01,VWS V14.01,2013-05-10 22:30:00,
2013-05-10 18:33:00,69.9,58.9,29.98,North,355,2.0,4.0,68,0.00,,OVC055,0.01,VWS V14.01,2013-05-10 22:33:00,
2013-05-10 18:38:00,69.7,58.7,29.98,SW,221,0.0,5.0,68,0.00,,OVC055,0.01,VWS V14.01,2013-05-10 22:38:00,
2013-05-10 18:43:00,69.7,58.7,29.98,South,177,1.0,6.0,68,0.00,,OVC055,0.01,VWS V14.01,2013-05-10 22:43:00,
2013-05-10 18:48:00,69.6,59.0,29.98,SSW,205,2.0,6.0,69,0.00,,OVC055,0.01,VWS V14.01,2013-05-10 22:48:00,
2013-05-10 18:53:00,69.5,59.3,29.97,ESE,103,2.0,7.0,70,0.00,,OVC055,0.01,VWS V14.01,2013-05-10 22:53:00,
2013-05-10 18:58:00,69.3,59.5,29.97,North,355,0.0,7.0,71,0.00,,OVC055,0.01,VWS V14.01,2013-05-10 22:58:00,
2013-05-10 19:00:00,69.3,59.5,29.97,North,355,0.0,7.0,71,0.00,,OVC055,0.01,VWS V14.01,2013-05-10 23:00:00,
2013-05-10 19:03:00,69.1,58.9,29.97,South,175,0.0,6.0,70,0.00,,OVC055,0.01,VWS V14.01,2013-05-10 23:03:00,
2013-05-10 19:08:00,69.0,59.2,29.97,South,178,0.0,6.0,71,0.00,,OVC055,0.01,VWS V14.01,2013-05-10 23:08:00,
2013-05-10 19:13:00,68.8,58.6,29.97,NNE,14,0.0,6.0,70,0.00,,OVC055,0.01,VWS V14.01,2013-05-10 23:13:00,
2013-05-10 19:18:00,68.7,58.9,29.97,East,88,2.0,6.0,71,0.00,,OVC055,0.01,VWS V14.01,2013-05-10 23:18:00,
2013-05-10 19:23:00,68.6,59.6,29.97,East,84,0.0,6.0,73,0.00,,OVC055,0.01,VWS V14.01,2013-05-10 23:23:00,
2013-05-10 19:28:00,68.4,59.0,29.97,SE,135,0.0,6.0,72,0.00,,OVC055,0.01,VWS V14.01,2013-05-10 23:28:00,
2013-05-10 19:30:00,68.4,59.0,29.97,SE,135,1.0,6.0,72,0.00,,OVC055,0.01,VWS V14.01,2013-05-10 23:30:00,
2013-05-10 19:33:00,68.3,59.3,29.97,SW,228,1.0,2.0,73,0.00,,OVC055,0.01,VWS V14.01,2013-05-10 23:33:00,
2013-05-10 19:38:00,68.1,59.5,29.96,SW,224,0.0,2.0,74,0.00,,OVC055,0.01,VWS V14.01,2013-05-10 23:38:00,
2013-05-10 19:43:00,67.9,59.3,29.96,SW,224,0.0,2.0,74,0.00,,OVC055,0.01,VWS V14.01,2013-05-10 23:43:00,
2013-05-10 19:48:00,67.6,59.4,29.96,SW,224,0.0,2.0,75,0.00,,OVC055,0.01,VWS V14.01,2013-05-10 23:48:00,
2013-05-10 19:53:00,67.4,59.2,29.96,SW,225,0.0,2.0,75,0.00,,OVC055,0.01,VWS V14.01,2013-05-10 23:53:00,
2013-05-10 19:58:00,67.3,58.7,29.97,WSW,254,0.0,3.0,74,0.00,,OVC055,0.01,VWS V14.01,2013-05-10 23:58:00,
2013-05-10 20:00:00,67.3,59.1,29.97,WSW,254,0.0,3.0,75,0.00,,OVC055,0.01,VWS V14.01,2013-05-11 00:00:00,
2013-05-10 20:03:00,67.4,59.2,29.96,WSW,254,0.0,1.0,75,0.00,,OVC055,0.01,VWS V14.01,2013-05-11 00:03:00,
2013-05-10 20:08:00,67.2,59.0,29.97,WSW,254,0.0,2.0,75,0.00,,OVC055,0.01,VWS V14.01,2013-05-11 00:08:00,
2013-05-10 20:13:00,66.9,59.1,29.97,WSW,253,0.0,2.0,76,0.00,,OVC055,0.01,VWS V14.01,2013-05-11 00:13:00,
2013-05-10 20:18:00,66.7,58.9,29.98,WSW,254,1.0,2.0,76,0.00,,OVC055,0.01,VWS V14.01,2013-05-11 00:18:00,
2013-05-10 20:23:00,66.5,58.7,29.98,WSW,254,0.0,2.0,76,0.00,,OVC055,0.01,VWS V14.01,2013-05-11 00:23:00,
2013-05-10 20:28:00,66.3,58.5,29.98,WSW,252,0.0,2.0,76,0.00,,OVC055,0.01,VWS V14.01,2013-05-11 00:28:00,
2013-05-10 20:30:00,66.3,58.5,29.99,WSW,252,0.0,2.0,76,0.00,,OVC055,0.01,VWS V14.01,2013-05-11 00:30:00,
2013-05-10 20:33:00,66.2,58.4,29.99,SSW,195,1.0,2.0,76,0.00,,OVC055,0.01,VWS V14.01,2013-05-11 00:33:00,
2013-05-10 20:38:00,66.1,58.7,29.99,SSW,195,0.0,2.0,77,0.00,,OVC055,0.01,VWS V14.01,2013-05-11 00:38:00,
2013-05-10 20:43:00,65.9,58.5,29.99,SSW,195,0.0,2.0,77,0.00,,OVC055,0.01,VWS V14.01,2013-05-11 00:43:00,
2013-05-10 20:48:00,65.8,58.8,29.99,SSW,195,0.0,2.0,78,0.00,,OVC055,0.01,VWS V14.01,2013-05-11 00:48:00,
2013-05-10 20:53:00,65.7,58.7,29.99,SSW,195,0.0,2.0,78,0.00,,OVC055,0.01,VWS V14.01,2013-05-11 00:53:00,
2013-05-10 20:58:00,65.6,58.6,29.99,SW,234,0.0,2.0,78,0.00,,OVC055,0.01,VWS V14.01,2013-05-11 00:58:00,
2013-05-10 21:00:00,65.6,58.6,29.99,SW,234,0.0,2.0,78,0.00,,OVC055,0.01,VWS V14.01,2013-05-11 01:00:00,
2013-05-10 21:03:00,65.4,58.7,29.98,SW,234,0.0,1.0,79,0.00,,OVC055,0.01,VWS V14.01,2013-05-11 01:03:00,
2013-05-10 21:08:00,65.3,59.0,29.98,SW,234,0.0,1.0,80,0.00,,OVC055,0.01,VWS V14.01,2013-05-11 01:08:00,
2013-05-10 21:13:00,65.2,58.9,29.98,SW,233,0.0,1.0,80,0.00,,OVC055,0.01,VWS V14.01,2013-05-11 01:13:00,
2013-05-10 21:18:00,65.0,58.7,29.97,SW,234,0.0,1.0,80,0.00,,OVC055,0.01,VWS V14.01,2013-05-11 01:18:00,
2013-05-10 21:22:00,64.8,58.8,29.98,SW,234,0.0,1.0,81,0.00,,OVC055,0.01,VWS V14.01,2013-05-11 01:22:00,
2013-05-10 21:27:00,64.6,58.7,29.98,SW,233,0.0,1.0,81,0.00,,OVC055,0.01,VWS V14.01,2013-05-11 01:27:00,
2013-05-10 21:30:00,64.5,58.5,29.99,SW,234,0.0,1.0,81,0.00,,OVC055,0.01,VWS V14.01,2013-05-11 01:30:00,
2013-05-10 21:33:00,64.4,58.8,29.99,SW,234,0.0,0.0,82,0.00,,OVC055,0.01,VWS V14.01,2013-05-11 01:33:00,
2013-05-10 21:38:00,64.3,58.7,29.99,SW,233,0.0,0.0,82,0.00,,OVC055,0.01,VWS V14.01,2013-05-11 01:38:00,
2013-05-10 21:43:00,64.2,58.6,29.99,SW,234,0.0,0.0,82,0.00,,OVC055,0.01,VWS V14.01,2013-05-11 01:43:00,
2013-05-10 21:48:00,64.1,58.8,29.99,SW,234,0.0,0.0,83,0.00,,OVC055,0.01,VWS V14.01,2013-05-11 01:48:00,
2013-05-10 21:53:00,64.0,58.7,29.99,SW,233,0.0,0.0,83,0.00,,OVC055,0.01,VWS V14.01,2013-05-11 01:53:00,
2013-05-10 21:58:00,64.0,58.7,29.99,SW,233,0.0,0.0,83,0.00,,OVC055,0.01,VWS V14.01,2013-05-11 01:58:00,
2013-05-10 22:00:00,63.9,58.6,29.99,SW,233,0.0,0.0,83,0.00,,OVC055,0.01,VWS V14.01,2013-05-11 02:00:00,
2013-05-10 22:03:00,63.9,59.0,29.99,SW,233,0.0,0.0,84,0.00,,OVC055,0.01,VWS V14.01,2013-05-11 02:03:00,
2013-05-10 22:08:00,63.8,58.9,29.99,SW,233,0.0,0.0,84,0.00,,OVC055,0.01,VWS V14.01,2013-05-11 02:08:00,
2013-05-10 22:13:00,63.7,58.8,29.99,SW,233,0.0,0.0,84,0.00,,OVC055,0.01,VWS V14.01,2013-05-11 02:13:00,
2013-05-10 22:18:00,63.7,58.8,29.99,SW,233,0.0,0.0,84,0.00,,OVC055,0.01,VWS V14.01,2013-05-11 02:18:00,
2013-05-10 22:23:00,63.7,58.8,29.99,SW,234,0.0,0.0,84,0.00,,OVC055,0.01,VWS V14.01,2013-05-11 02:23:00,
2013-05-10 22:27:00,63.7,58.8,29.99,SW,233,0.0,0.0,84,0.00,,OVC055,0.01,VWS V14.01,2013-05-11 02:27:00,
2013-05-10 22:30:00,63.7,58.8,29.99,SW,233,0.0,0.0,84,0.00,,OVC055,0.01,VWS V14.01,2013-05-11 02:30:00,
2013-05-10 22:32:00,63.7,58.8,29.99,SW,233,0.0,0.0,84,0.00,,OVC055,0.01,VWS V14.01,2013-05-11 02:32:00,
2013-05-10 22:37:00,63.8,58.9,29.99,SW,233,0.0,0.0,84,0.00,,OVC055,0.01,VWS V14.01,2013-05-11 02:37:00,
2013-05-10 22:42:00,63.8,59.2,29.98,SW,233,0.0,0.0,85,0.00,,OVC055,0.01,VWS V14.01,2013-05-11 02:42:00,
2013-05-10 22:47:00,63.8,59.2,29.98,SW,234,0.0,0.0,85,0.00,,OVC055,0.01,VWS V14.01,2013-05-11 02:47:00,
2013-05-10 22:52:00,63.8,59.2,29.98,SW,233,0.0,0.0,85,0.00,,OVC055,0.01,VWS V14.01,2013-05-11 02:52:00,
2013-05-10 22:57:00,63.8,59.2,29.98,SW,234,0.0,0.0,85,0.00,,OVC055,0.01,VWS V14.01,2013-05-11 02:57:00,
2013-05-10 23:00:00,63.8,59.2,29.98,SW,234,0.0,0.0,85,0.00,,OVC055,0.01,VWS V14.01,2013-05-11 03:00:00,
2013-05-10 23:02:00,63.8,59.2,29.98,SW,233,0.0,0.0,85,0.00,,OVC055,0.01,VWS V14.01,2013-05-11 03:02:00,
2013-05-10 23:07:00,63.9,59.3,29.98,SW,221,0.0,2.0,85,0.00,,OVC055,0.01,VWS V14.01,2013-05-11 03:07:00,
2013-05-10 23:12:00,63.9,59.3,29.98,SW,221,0.0,2.0,85,0.00,,OVC055,0.01,VWS V14.01,2013-05-11 03:12:00,
2013-05-10 23:17:00,63.9,59.3,29.98,SW,221,0.0,2.0,85,0.00,,OVC055,0.01,VWS V14.01,2013-05-11 03:17:00,
2013-05-10 23:22:00,63.8,59.2,29.98,SW,222,0.0,2.0,85,0.00,,OVC055,0.01,VWS V14.01,2013-05-11 03:22:00,
2013-05-10 23:27:00,63.8,59.2,29.98,SW,222,0.0,2.0,85,0.00,,OVC055,0.01,VWS V14.01,2013-05-11 03:27:00,
2013-05-10 23:30:00,63.7,59.1,29.98,SW,223,0.0,2.0,85,0.00,,OVC055,0.01,VWS V14.01,2013-05-11 03:30:00,
2013-05-10 23:32:00,63.8,59.2,29.97,SW,229,1.0,2.0,85,0.00,,OVC055,0.01,VWS V14.01,2013-05-11 03:32:00,
2013-05-10 23:37:00,63.8,59.2,29.97,SW,229,0.0,2.0,85,0.00,,OVC055,0.01,VWS V14.01,2013-05-11 03:37:00,
2013-05-10 23:42:00,63.8,59.2,29.98,SW,229,0.0,2.0,85,0.00,,OVC055,0.01,VWS V14.01,2013-05-11 03:42:00,
2013-05-10 23:47:00,63.7,59.1,29.98,SW,229,0.0,2.0,85,0.00,,OVC055,0.01,VWS V14.01,2013-05-11 03:47:00,
2013-05-10 23:52:00,63.6,59.3,29.97,SW,229,0.0,2.0,86,0.00,,OVC055,0.01,VWS V14.01,2013-05-11 03:52:00,
2013-05-10 23:57:00,63.5,59.2,29.97,SW,229,0.0,2.0,86,0.00,,OVC055,0.01,VWS V14.01,2013-05-11 03:57:00,